Time;durP1;ratioP1;P1;durP2;ratioP2;P2;SDS_P1;SDS_P2;PMS_P1;PMS_P2;Temp;Humidity;BMP_temperature;BMP_pressure;BME280_temperature;BME280_humidity;BME280_pressure;Samples;Min_cycle;Max_cycle;Signal;HPM_P1;HPM_P2
2021/01/22 00:00:48;;;;;;;;;;;26.60;84.20;;;;;;4993158;28;20284;-79
2021/01/22 00:03:15;;;;;;;;;;;26.60;83.40;;;;;;4992233;28;20013;-80
2021/01/22 00:05:42;;;;;;;;;;;26.70;83.40;;;;;;4991291;28;19913;-79
2021/01/22 00:08:08;;;;;;;;;;;26.80;83.10;;;;;;4990491;28;19990;-80
2021/01/22 00:10:35;;;;;;;;;;;27.00;83.40;;;;;;4994190;28;19953;-79
2021/01/22 00:13:01;;;;;;;;;;;27.20;82.70;;;;;;4993988;28;19932;-79
2021/01/22 00:15:30;;;;;;;;;;;27.20;82.30;;;;;;4992740;28;19941;-80
2021/01/22 00:17:58;;;;;;;;;;;27.30;82.00;;;;;;4994507;28;19916;-79
2021/01/22 00:20:24;;;;;;;;;;;27.40;82.00;;;;;;4985869;28;20447;-80
2021/01/22 00:22:51;;;;;;;;;;;27.30;82.00;;;;;;4993874;28;19917;-79
2021/01/22 00:25:20;;;;;;;;;;;27.20;83.00;;;;;;4989702;28;19921;-80
2021/01/22 00:27:47;;;;;;;;;;;27.20;81.30;;;;;;4993469;28;19922;-80
2021/01/22 00:30:14;;;;;;;;;;;27.40;80.50;;;;;;4994861;28;20415;-80
2021/01/22 00:32:41;;;;;;;;;;;27.50;79.40;;;;;;5012415;28;19917;-80
2021/01/22 00:35:08;;;;;;;;;;;27.70;77.70;;;;;;4993086;28;20364;-79
2021/01/22 00:37:35;;;;;;;;;;;28.10;76.10;;;;;;4993577;28;20325;-81
2021/01/22 00:40:02;;;;;;;;;;;28.20;74.70;;;;;;4993460;28;19910;-81
2021/01/22 00:42:29;;;;;;;;;;;28.20;82.80;;;;;;4983308;28;19922;-80
2021/01/22 00:44:55;;;;;;;;;;;28.50;84.80;;;;;;4974595;28;19910;-79
2021/01/22 00:47:25;;;;;;;;;;;28.60;84.40;;;;;;4978429;28;19914;-80
2021/01/22 00:49:51;;;;;;;;;;;28.80;83.40;;;;;;4989502;28;19914;-81
2021/01/22 00:52:18;;;;;;;;;;;28.90;83.20;;;;;;4993150;28;20348;-80
2021/01/22 00:54:45;;;;;;;;;;;29.00;84.20;;;;;;4969974;28;19918;-81
2021/01/22 00:57:11;;;;;;;;;;;29.10;84.10;;;;;;4974547;28;20042;-80
2021/01/22 00:59:38;;;;;;;;;;;29.40;83.60;;;;;;4973731;28;19910;-80
2021/01/22 01:02:04;;;;;;;;;;;29.50;82.00;;;;;;4974190;28;19957;-80
2021/01/22 01:04:31;;;;;;;;;;;29.70;82.00;;;;;;4974312;28;20007;-80
2021/01/22 01:06:58;;;;;;;;;;;29.80;81.90;;;;;;4993700;28;19925;-80
2021/01/22 01:09:24;;;;;;;;;;;30.00;80.30;;;;;;5010122;28;20277;-80
2021/01/22 01:11:51;;;;;;;;;;;30.30;80.50;;;;;;5013520;28;20344;-79
2021/01/22 01:14:18;;;;;;;;;;;30.60;77.90;;;;;;5013147;28;19922;-81
2021/01/22 01:16:45;;;;;;;;;;;30.70;76.90;;;;;;5013352;28;19917;-81
2021/01/22 01:19:12;;;;;;;;;;;30.70;77.90;;;;;;5012570;28;20319;-81
2021/01/22 01:21:38;;;;;;;;;;;30.70;78.00;;;;;;5013256;28;19910;-80
2021/01/22 01:24:05;;;;;;;;;;;30.70;78.10;;;;;;5012854;28;19971;-78
2021/01/22 01:26:32;;;;;;;;;;;30.80;77.50;;;;;;4992302;28;19921;-80
2021/01/22 01:28:59;;;;;;;;;;;31.00;76.70;;;;;;4993104;28;20292;-81
2021/01/22 01:31:25;;;;;;;;;;;31.10;76.40;;;;;;4992177;28;19972;-80
2021/01/22 01:33:52;;;;;;;;;;;31.30;74.30;;;;;;4993802;28;19968;-80
2021/01/22 01:36:19;;;;;;;;;;;31.10;75.50;;;;;;4993661;28;19929;-81
2021/01/22 01:38:45;;;;;;;;;;;31.10;75.60;;;;;;4992797;28;20404;-80
2021/01/22 01:41:12;;;;;;;;;;;31.30;74.80;;;;;;4993910;28;19918;-81
2021/01/22 01:43:39;;;;;;;;;;;31.20;74.90;;;;;;4993199;28;19964;-80
2021/01/22 01:46:05;;;;;;;;;;;31.20;75.20;;;;;;4979066;28;19910;-80
2021/01/22 01:48:32;;;;;;;;;;;31.30;75.30;;;;;;4973568;28;19914;-80
2021/01/22 01:50:59;;;;;;;;;;;31.30;75.50;;;;;;4983017;28;19910;-80
2021/01/22 01:53:27;;;;;;;;;;;31.30;75.00;;;;;;4982121;28;19954;-78
2021/01/22 01:55:54;;;;;;;;;;;31.00;75.90;;;;;;4974019;28;19949;-80
2021/01/22 01:58:21;;;;;;;;;;;31.20;74.50;;;;;;4973657;28;19925;-78
2021/01/22 02:00:48;;;;;;;;;;;31.40;74.30;;;;;;4978668;28;19918;-80
2021/01/22 02:03:15;;;;;;;;;;;31.10;74.80;;;;;;4990767;28;19918;-81
2021/01/22 02:05:42;;;;;;;;;;;30.60;76.40;;;;;;4993313;28;19956;-82
2021/01/22 02:08:08;;;;;;;;;;;30.10;76.80;;;;;;4996399;28;19910;-80
2021/01/22 02:10:35;;;;;;;;;;;29.70;79.80;;;;;;5016653;28;20051;-80
2021/01/22 02:13:02;;;;;;;;;;;29.30;80.70;;;;;;5016653;28;19928;-83
2021/01/22 02:15:30;;;;;;;;;;;29.20;81.50;;;;;;5016228;28;19909;-80
2021/01/22 02:17:57;;;;;;;;;;;29.10;81.50;;;;;;5016118;28;19915;-80
2021/01/22 02:20:24;;;;;;;;;;;29.00;81.50;;;;;;5000499;28;19914;-81
2021/01/22 02:22:51;;;;;;;;;;;29.00;82.00;;;;;;4995679;28;19914;-80
2021/01/22 02:25:20;;;;;;;;;;;29.00;81.70;;;;;;4995047;28;19925;-80
2021/01/22 02:27:47;;;;;;;;;;;28.80;82.60;;;;;;4995847;28;19936;-79
2021/01/22 02:30:14;;;;;;;;;;;28.90;83.40;;;;;;4992321;28;20009;-79
2021/01/22 02:32:43;;;;;;;;;;;28.90;83.80;;;;;;4994958;28;20379;-78
2021/01/22 02:35:11;;;;;;;;;;;29.00;83.80;;;;;;4996155;28;19914;-80
2021/01/22 02:37:38;;;;;;;;;;;29.10;84.00;;;;;;4993299;28;19914;-81
2021/01/22 02:40:07;;;;;;;;;;;29.20;83.80;;;;;;4985711;28;19913;-82
2021/01/22 02:42:33;;;;;;;;;;;29.00;84.00;;;;;;4989250;28;19929;-81
2021/01/22 02:45:00;;;;;;;;;;;28.90;85.30;;;;;;4987916;28;19969;-80
2021/01/22 02:47:27;;;;;;;;;;;28.80;84.90;;;;;;4994512;28;19921;-80
2021/01/22 02:49:54;;;;;;;;;;;28.80;84.90;;;;;;4995432;28;19910;-81
2021/01/22 02:52:21;;;;;;;;;;;28.80;85.60;;;;;;5000347;28;19926;-76
2021/01/22 02:54:51;;;;;;;;;;;28.90;86.30;;;;;;5017089;28;19937;-80
2021/01/22 02:57:28;;;;;;;;;;;28.90;85.20;;;;;;4979251;28;19921;-80
2021/01/22 03:00:00;;;;;;;;;;;29.00;84.30;;;;;;4994250;28;19961;-80
2021/01/22 03:02:39;;;;;;;;;;;28.90;85.30;;;;;;4995227;28;20369;-79
2021/01/22 03:05:06;;;;;;;;;;;29.00;85.00;;;;;;4994888;28;19953;-79
2021/01/22 03:07:40;;;;;;;;;;;28.90;85.80;;;;;;4994173;28;20377;-79
2021/01/22 03:10:08;;;;;;;;;;;28.90;85.70;;;;;;4999552;28;19913;-78
2021/01/22 03:12:35;;;;;;;;;;;28.90;85.50;;;;;;5008542;28;20351;-79
2021/01/22 03:15:02;;;;;;;;;;;29.00;84.50;;;;;;4995130;28;19910;-78
2021/01/22 03:17:29;;;;;;;;;;;28.90;85.30;;;;;;4992972;28;20411;-79
2021/01/22 03:19:59;;;;;;;;;;;28.80;84.90;;;;;;4993353;28;19922;-78
2021/01/22 03:22:25;;;;;;;;;;;28.80;85.20;;;;;;4993562;28;20435;-79
2021/01/22 03:24:52;;;;;;;;;;;28.80;83.90;;;;;;4989927;28;20281;-81
2021/01/22 03:27:19;;;;;;;;;;;28.80;84.00;;;;;;4993100;28;19917;-80
2021/01/22 03:29:49;;;;;;;;;;;28.80;84.60;;;;;;4993623;28;19910;-80
2021/01/22 03:32:16;;;;;;;;;;;28.80;84.60;;;;;;4997626;28;20284;-85
2021/01/22 03:34:43;;;;;;;;;;;28.90;84.00;;;;;;4998131;28;19937;-85
2021/01/22 03:37:09;;;;;;;;;;;28.90;83.30;;;;;;4994558;28;20045;-83
2021/01/22 03:39:37;;;;;;;;;;;28.90;83.30;;;;;;4976023;28;19913;-83
2021/01/22 03:42:06;;;;;;;;;;;29.00;83.20;;;;;;4977548;28;19914;-83
2021/01/22 03:44:32;;;;;;;;;;;29.00;81.90;;;;;;4992747;28;20284;-82
2021/01/22 03:46:59;;;;;;;;;;;29.00;82.30;;;;;;4978381;28;20348;-82
2021/01/22 03:49:26;;;;;;;;;;;29.00;83.10;;;;;;4977020;28;19920;-81
2021/01/22 03:51:52;;;;;;;;;;;29.00;82.60;;;;;;4983167;28;19965;-82
2021/01/22 03:54:19;;;;;;;;;;;29.00;82.00;;;;;;4994738;28;19910;-84
2021/01/22 03:56:46;;;;;;;;;;;29.00;82.10;;;;;;4995461;28;20328;-81
2021/01/22 03:59:12;;;;;;;;;;;29.00;82.00;;;;;;4994968;28;19921;-81
2021/01/22 04:01:50;;;;;;;;;;;29.00;82.20;;;;;;5012394;28;19941;-84
2021/01/22 04:04:16;;;;;;;;;;;29.10;81.70;;;;;;5000784;28;20307;-81
2021/01/22 04:06:43;;;;;;;;;;;29.10;82.10;;;;;;4990453;28;19976;-78
2021/01/22 04:09:10;;;;;;;;;;;29.10;82.10;;;;;;4984457;28;19937;-79
2021/01/22 04:11:36;;;;;;;;;;;29.00;81.40;;;;;;4985172;28;20021;-81
2021/01/22 04:14:03;;;;;;;;;;;29.00;81.30;;;;;;4982736;28;20261;-80
2021/01/22 04:16:29;;;;;;;;;;;29.00;81.50;;;;;;4984540;28;19914;-81
2021/01/22 04:18:56;;;;;;;;;;;29.00;82.60;;;;;;4983292;28;19956;-78
2021/01/22 04:21:23;;;;;;;;;;;29.00;83.00;;;;;;4966254;28;19921;-79
2021/01/22 04:23:50;;;;;;;;;;;29.00;82.80;;;;;;4982766;28;19910;-79
2021/01/22 04:26:17;;;;;;;;;;;29.10;83.70;;;;;;5003996;28;19902;-79
2021/01/22 04:28:43;;;;;;;;;;;29.10;83.80;;;;;;4997931;28;20010;-78
2021/01/22 04:31:10;;;;;;;;;;;29.00;82.90;;;;;;4990877;28;19920;-82
2021/01/22 04:33:38;;;;;;;;;;;29.20;82.30;;;;;;4992224;28;19918;-81
2021/01/22 04:36:06;;;;;;;;;;;29.20;83.00;;;;;;4993027;28;19924;-84
2021/01/22 04:38:32;;;;;;;;;;;29.20;82.40;;;;;;4975966;28;19917;-82
2021/01/22 04:41:00;;;;;;;;;;;29.10;81.40;;;;;;4992732;28;20000;-83
2021/01/22 04:43:26;;;;;;;;;;;29.10;82.20;;;;;;4989621;28;19938;-81
2021/01/22 04:45:54;;;;;;;;;;;29.10;81.90;;;;;;4992237;28;19910;-83
2021/01/22 04:48:21;;;;;;;;;;;29.10;82.00;;;;;;4992616;28;19921;-81
2021/01/22 04:50:49;;;;;;;;;;;29.20;80.60;;;;;;4977270;28;20372;-81
2021/01/22 04:53:15;;;;;;;;;;;29.10;80.20;;;;;;4973307;28;20057;-81
2021/01/22 04:55:45;;;;;;;;;;;29.10;80.10;;;;;;4975207;28;19917;-80
2021/01/22 04:58:13;;;;;;;;;;;29.10;80.30;;;;;;4981215;28;19934;-80
2021/01/22 05:00:40;;;;;;;;;;;29.00;80.10;;;;;;4982620;28;20287;-81
2021/01/22 05:03:06;;;;;;;;;;;28.90;81.00;;;;;;4979877;28;19965;-81
2021/01/22 05:05:33;;;;;;;;;;;28.90;81.30;;;;;;4996077;28;19910;-79
2021/01/22 05:08:01;;;;;;;;;;;28.90;81.30;;;;;;4995776;28;20369;-81
2021/01/22 05:10:28;;;;;;;;;;;28.90;81.20;;;;;;4996093;28;19918;-79
2021/01/22 05:12:54;;;;;;;;;;;28.80;82.00;;;;;;4995727;28;19918;-81
2021/01/22 05:15:24;;;;;;;;;;;28.80;80.80;;;;;;4996024;28;19914;-84
2021/01/22 05:17:53;;;;;;;;;;;28.80;81.20;;;;;;4978176;28;20550;-82
2021/01/22 05:20:28;;;;;;;;;;;28.80;81.70;;;;;;4996935;28;19917;-81
2021/01/22 05:22:55;;;;;;;;;;;28.90;82.50;;;;;;4986056;28;19952;-82
2021/01/22 05:25:21;;;;;;;;;;;28.80;81.90;;;;;;4977424;28;20009;-83
2021/01/22 05:27:49;;;;;;;;;;;28.90;83.10;;;;;;4966784;28;19921;-83
2021/01/22 05:30:17;;;;;;;;;;;28.90;82.20;;;;;;4977328;28;20267;-82
2021/01/22 05:32:43;;;;;;;;;;;29.00;82.50;;;;;;4995523;28;20360;-83
2021/01/22 05:35:10;;;;;;;;;;;29.00;82.40;;;;;;4996313;28;19940;-83
2021/01/22 05:37:55;;;;;;;;;;;28.90;82.20;;;;;;4995956;28;19910;-84
2021/01/22 05:40:22;;;;;;;;;;;28.70;82.80;;;;;;4995247;28;19921;-83
2021/01/22 05:42:49;;;;;;;;;;;28.70;83.30;;;;;;4997177;28;19921;-81
2021/01/22 05:45:17;;;;;;;;;;;28.70;83.80;;;;;;4998778;28;19965;-88
2021/01/22 05:47:44;;;;;;;;;;;28.60;84.10;;;;;;4970656;28;19918;-81
2021/01/22 05:50:17;;;;;;;;;;;28.50;84.70;;;;;;5008809;28;20159;-83
2021/01/22 05:52:46;;;;;;;;;;;28.40;85.20;;;;;;5004167;28;20289;-81
2021/01/22 05:55:20;;;;;;;;;;;28.20;85.60;;;;;;4984717;28;19939;-85
2021/01/22 05:57:47;;;;;;;;;;;28.00;85.70;;;;;;5002413;28;20476;-80
2021/01/22 06:00:14;;;;;;;;;;;28.00;85.70;;;;;;5006180;28;19910;-84
2021/01/22 06:02:41;;;;;;;;;;;27.90;84.50;;;;;;5013205;28;19917;-84
2021/01/22 06:05:15;;;;;;;;;;;27.80;84.60;;;;;;5001392;28;19921;-83
2021/01/22 06:07:43;;;;;;;;;;;27.80;85.10;;;;;;4995198;28;19910;-82
2021/01/22 06:10:16;;;;;;;;;;;27.70;86.00;;;;;;4999097;28;19920;-83
2021/01/22 06:12:50;;;;;;;;;;;27.90;86.20;;;;;;5000046;28;20375;-84
2021/01/22 06:15:17;;;;;;;;;;;27.90;85.90;;;;;;4998916;28;19910;-83
2021/01/22 06:17:51;;;;;;;;;;;27.90;86.20;;;;;;4995918;28;20363;-83
2021/01/22 06:20:22;;;;;;;;;;;27.90;86.10;;;;;;4989238;28;19918;-83
2021/01/22 06:23:00;;;;;;;;;;;28.00;85.70;;;;;;5002268;28;19952;-82
2021/01/22 06:25:27;;;;;;;;;;;28.10;86.20;;;;;;5004069;28;19894;-82
2021/01/22 06:27:55;;;;;;;;;;;28.10;85.70;;;;;;5017805;28;19900;-83
2021/01/22 06:30:23;;;;;;;;;;;28.10;85.60;;;;;;5000033;28;19918;-81
2021/01/22 06:32:50;;;;;;;;;;;28.20;85.40;;;;;;4991102;28;19928;-82
2021/01/22 06:35:17;;;;;;;;;;;28.30;85.40;;;;;;4991516;28;19953;-82
2021/01/22 06:37:44;;;;;;;;;;;28.30;84.70;;;;;;4992238;28;19938;-83
2021/01/22 06:40:11;;;;;;;;;;;28.30;84.00;;;;;;4991692;28;19926;-83
2021/01/22 06:42:38;;;;;;;;;;;28.30;84.10;;;;;;4991718;28;20400;-82
2021/01/22 06:45:05;;;;;;;;;;;28.30;83.80;;;;;;4974941;28;19918;-83
2021/01/22 06:47:32;;;;;;;;;;;28.30;83.40;;;;;;4988834;28;19910;-83
2021/01/22 06:49:59;;;;;;;;;;;28.30;82.80;;;;;;4995619;28;19975;-81
2021/01/22 06:52:26;;;;;;;;;;;28.30;82.10;;;;;;4993757;28;20427;-84
2021/01/22 06:55:06;;;;;;;;;;;28.40;82.20;;;;;;4993261;28;19921;-84
2021/01/22 06:57:32;;;;;;;;;;;28.40;82.90;;;;;;4993163;28;20012;-83
2021/01/22 07:00:00;;;;;;;;;;;28.40;83.00;;;;;;4993730;28;19936;-84
2021/01/22 07:02:38;;;;;;;;;;;28.30;83.30;;;;;;5012642;28;19925;-83
2021/01/22 07:05:26;;;;;;;;;;;28.20;83.90;;;;;;5005857;28;19921;-82
2021/01/22 07:07:52;;;;;;;;;;;28.20;84.70;;;;;;4993328;28;19910;-84
2021/01/22 07:10:19;;;;;;;;;;;28.00;85.40;;;;;;4993650;28;19913;-83
2021/01/22 07:12:46;;;;;;;;;;;28.00;85.80;;;;;;4992702;28;19973;-82
2021/01/22 07:15:25;;;;;;;;;;;28.00;86.50;;;;;;4992610;28;19925;-83
2021/01/22 07:17:54;;;;;;;;;;;27.90;87.50;;;;;;5007438;28;19969;-82
2021/01/22 07:20:20;;;;;;;;;;;27.80;88.00;;;;;;5001616;28;19945;-82
2021/01/22 07:22:53;;;;;;;;;;;27.60;88.60;;;;;;5004044;28;19909;-84
2021/01/22 07:25:35;;;;;;;;;;;27.50;89.20;;;;;;4989429;28;19940;-83
2021/01/22 07:28:07;;;;;;;;;;;27.40;89.70;;;;;;4991885;28;20020;-82
2021/01/22 07:30:40;;;;;;;;;;;27.40;90.10;;;;;;4992822;28;20032;-82
2021/01/22 07:33:39;;;;;;;;;;;27.30;90.20;;;;;;4974861;28;19921;-83
2021/01/22 07:36:06;;;;;;;;;;;27.20;90.30;;;;;;4949327;28;19921;-81
2021/01/22 07:38:33;;;;;;;;;;;27.10;90.70;;;;;;4992347;28;19914;-81
2021/01/22 07:41:00;;;;;;;;;;;27.10;90.90;;;;;;4992233;28;20013;-83
2021/01/22 07:43:27;;;;;;;;;;;27.10;90.80;;;;;;4991440;28;19918;-83
2021/01/22 07:46:03;;;;;;;;;;;27.00;91.20;;;;;;4991988;28;19928;-82
2021/01/22 07:48:30;;;;;;;;;;;27.10;91.10;;;;;;4992050;28;20355;-81
2021/01/22 07:50:57;;;;;;;;;;;27.00;90.90;;;;;;4993054;28;19914;-81
2021/01/22 07:53:24;;;;;;;;;;;27.00;91.20;;;;;;4991904;28;19932;-83
2021/01/22 07:55:54;;;;;;;;;;;27.00;91.40;;;;;;4992167;28;20481;-83
2021/01/22 07:58:20;;;;;;;;;;;27.00;91.60;;;;;;4992257;28;19918;-83
2021/01/22 08:00:47;;;;;;;;;;;26.90;91.60;;;;;;4992826;28;19917;-83
2021/01/22 08:03:15;;;;;;;;;;;26.90;91.80;;;;;;5012038;28;19909;-83
2021/01/22 08:05:43;;;;;;;;;;;26.90;91.50;;;;;;4998554;28;19956;-84
2021/01/22 08:08:17;;;;;;;;;;;26.80;91.60;;;;;;4967688;28;19914;-84
2021/01/22 08:10:44;;;;;;;;;;;26.80;91.80;;;;;;4986723;28;19914;-82
2021/01/22 08:13:10;;;;;;;;;;;26.80;91.60;;;;;;4993890;28;19917;-86
2021/01/22 08:15:37;;;;;;;;;;;26.70;92.00;;;;;;4994327;28;19925;-82
2021/01/22 08:18:07;;;;;;;;;;;26.70;92.00;;;;;;4995091;28;20004;-82
2021/01/22 08:20:34;;;;;;;;;;;26.60;92.10;;;;;;4992857;28;20001;-83
2021/01/22 08:23:06;;;;;;;;;;;26.60;91.90;;;;;;4993731;28;19920;-83
2021/01/22 08:25:39;;;;;;;;;;;26.60;92.10;;;;;;4995257;28;19968;-84
2021/01/22 08:28:08;;;;;;;;;;;26.50;91.90;;;;;;4993489;28;19914;-83
2021/01/22 08:30:35;;;;;;;;;;;26.50;91.80;;;;;;4975456;28;19917;-84
2021/01/22 08:33:03;;;;;;;;;;;26.50;92.00;;;;;;4993737;28;19954;-82
2021/01/22 08:35:30;;;;;;;;;;;26.50;92.00;;;;;;4994563;28;19965;-83
2021/01/22 08:37:58;;;;;;;;;;;26.50;92.00;;;;;;4992391;28;19913;-82
2021/01/22 08:40:40;;;;;;;;;;;26.50;92.00;;;;;;4991553;28;19914;-84
2021/01/22 08:43:12;;;;;;;;;;;26.50;91.80;;;;;;4993158;28;21310;-84
2021/01/22 08:45:39;;;;;;;;;;;26.50;91.50;;;;;;4991661;28;20459;-85
2021/01/22 08:48:06;;;;;;;;;;;26.40;91.50;;;;;;4992869;28;19910;-86
2021/01/22 08:50:33;;;;;;;;;;;26.40;91.60;;;;;;4993298;28;19917;-85
2021/01/22 08:53:15;;;;;;;;;;;26.40;91.50;;;;;;4992374;28;20296;-83
2021/01/22 08:55:42;;;;;;;;;;;26.40;91.30;;;;;;4993715;28;19921;-84
2021/01/22 08:58:10;;;;;;;;;;;26.50;91.30;;;;;;4994199;28;19920;-87
2021/01/22 09:00:37;;;;;;;;;;;26.40;91.20;;;;;;4976099;28;19924;-86
2021/01/22 09:03:33;;;;;;;;;;;26.40;91.00;;;;;;4994712;28;19914;-86
2021/01/22 09:06:00;;;;;;;;;;;26.40;90.80;;;;;;4975598;28;19910;-87
2021/01/22 09:08:26;;;;;;;;;;;26.30;90.70;;;;;;4993923;28;20028;-87
2021/01/22 09:10:53;;;;;;;;;;;26.30;90.50;;;;;;4993045;28;20421;-85
2021/01/22 09:13:21;;;;;;;;;;;26.30;90.50;;;;;;4993652;28;20025;-82
2021/01/22 09:15:49;;;;;;;;;;;26.30;90.50;;;;;;4995316;28;20005;-86
2021/01/22 09:18:20;;;;;;;;;;;26.20;90.50;;;;;;4997911;28;19953;-85
2021/01/22 09:20:58;;;;;;;;;;;26.20;90.40;;;;;;4999051;28;19953;-87
2021/01/22 09:23:25;;;;;;;;;;;26.20;90.40;;;;;;4997717;28;20307;-85
2021/01/22 09:25:51;;;;;;;;;;;26.10;90.50;;;;;;4978925;28;19925;-89
2021/01/22 09:28:18;;;;;;;;;;;26.10;90.60;;;;;;4997871;28;19918;-83
2021/01/22 09:30:45;;;;;;;;;;;26.10;90.50;;;;;;4997239;28;19921;-85
2021/01/22 09:33:12;;;;;;;;;;;26.00;90.50;;;;;;4996836;28;19957;-85
2021/01/22 09:35:38;;;;;;;;;;;26.00;90.60;;;;;;4996808;28;20284;-86
2021/01/22 09:38:20;;;;;;;;;;;26.00;90.70;;;;;;4992902;28;20000;-83
2021/01/22 09:40:47;;;;;;;;;;;26.00;90.80;;;;;;4974400;28;19922;-85
2021/01/22 09:43:17;;;;;;;;;;;26.00;90.90;;;;;;4993569;28;19929;-81
2021/01/22 09:46:05;;;;;;;;;;;25.90;90.90;;;;;;5012894;28;19957;-81
2021/01/22 09:48:39;;;;;;;;;;;25.90;91.10;;;;;;4991953;28;19921;-83
2021/01/22 09:51:06;;;;;;;;;;;25.80;90.90;;;;;;4996925;28;19980;-87
2021/01/22 09:54:00;;;;;;;;;;;25.90;91.10;;;;;;4977020;28;20407;-82
2021/01/22 09:56:27;;;;;;;;;;;25.80;91.10;;;;;;4991108;28;19929;-85
2021/01/22 09:58:54;;;;;;;;;;;25.70;91.20;;;;;;5000421;28;19914;-85
2021/01/22 10:01:21;;;;;;;;;;;25.80;91.30;;;;;;4999596;28;19985;-82
2021/01/22 10:03:48;;;;;;;;;;;25.80;91.30;;;;;;4996335;28;19984;-83
2021/01/22 10:06:15;;;;;;;;;;;25.70;91.30;;;;;;4990079;28;20071;-88
2021/01/22 10:08:42;;;;;;;;;;;25.70;91.30;;;;;;4990562;28;19909;-84
2021/01/22 10:11:08;;;;;;;;;;;25.70;91.30;;;;;;4989935;28;19989;-87
2021/01/22 10:13:35;;;;;;;;;;;25.70;91.30;;;;;;4989794;28;19960;-85
2021/01/22 10:16:02;;;;;;;;;;;25.70;91.30;;;;;;4983417;28;19937;-86
2021/01/22 10:18:30;;;;;;;;;;;25.60;91.40;;;;;;4985163;28;19910;-82
2021/01/22 10:20:56;;;;;;;;;;;25.60;91.50;;;;;;4989135;28;19957;-83
2021/01/22 10:23:23;;;;;;;;;;;25.60;91.50;;;;;;4981280;28;19964;-84
2021/01/22 10:25:50;;;;;;;;;;;25.60;91.60;;;;;;4982187;28;19966;-84
2021/01/22 10:28:17;;;;;;;;;;;25.60;91.70;;;;;;4978104;28;19925;-83
2021/01/22 10:30:49;;;;;;;;;;;25.60;91.70;;;;;;4998391;28;19983;-86
2021/01/22 10:33:16;;;;;;;;;;;25.60;91.80;;;;;;4992554;28;20261;-83
2021/01/22 10:35:43;;;;;;;;;;;25.60;91.80;;;;;;4994469;28;19918;-85
2021/01/22 10:38:11;;;;;;;;;;;25.60;91.90;;;;;;4998733;28;19995;-85
2021/01/22 10:40:38;;;;;;;;;;;25.50;92.00;;;;;;4994957;28;20356;-84
2021/01/22 10:43:05;;;;;;;;;;;25.50;92.10;;;;;;4979893;28;19909;-85
2021/01/22 10:45:32;;;;;;;;;;;25.50;92.20;;;;;;4994174;28;19914;-84
2021/01/22 10:47:58;;;;;;;;;;;25.40;92.30;;;;;;4994939;28;20005;-87
2021/01/22 10:50:25;;;;;;;;;;;25.40;92.30;;;;;;4980851;28;19918;-83
2021/01/22 10:52:52;;;;;;;;;;;25.40;92.40;;;;;;4994390;28;19930;-88
2021/01/22 10:55:18;;;;;;;;;;;25.40;92.50;;;;;;4989892;28;20044;-87
2021/01/22 10:57:45;;;;;;;;;;;25.40;92.60;;;;;;4996188;28;20369;-85
2021/01/22 11:00:13;;;;;;;;;;;25.40;92.70;;;;;;4993180;28;19918;-87
2021/01/22 11:02:40;;;;;;;;;;;25.30;92.70;;;;;;4989621;28;19953;-83
2021/01/22 11:05:07;;;;;;;;;;;25.30;92.70;;;;;;4970349;28;19918;-88
2021/01/22 11:07:34;;;;;;;;;;;25.30;92.80;;;;;;4994010;28;20284;-85
2021/01/22 11:10:00;;;;;;;;;;;25.30;92.80;;;;;;4977514;28;20000;-86
2021/01/22 11:12:27;;;;;;;;;;;25.40;92.80;;;;;;4996304;28;19941;-82
2021/01/22 11:14:54;;;;;;;;;;;25.40;92.70;;;;;;4992833;28;19924;-85
2021/01/22 11:17:20;;;;;;;;;;;25.40;92.60;;;;;;4991175;28;19921;-83
2021/01/22 11:19:47;;;;;;;;;;;25.40;92.50;;;;;;4991934;28;19914;-84
2021/01/22 11:22:14;;;;;;;;;;;25.40;92.50;;;;;;4975491;28;19913;-84
2021/01/22 11:24:40;;;;;;;;;;;25.40;92.60;;;;;;4989097;28;19933;-83
2021/01/22 11:27:07;;;;;;;;;;;25.40;92.60;;;;;;5005840;28;19914;-82
2021/01/22 11:29:34;;;;;;;;;;;25.40;92.50;;;;;;4989811;28;19917;-83
2021/01/22 11:32:00;;;;;;;;;;;25.40;92.60;;;;;;4997251;28;19972;-85
2021/01/22 11:34:27;;;;;;;;;;;25.40;92.50;;;;;;4990276;28;19949;-84
2021/01/22 11:36:55;;;;;;;;;;;25.40;92.50;;;;;;4989980;28;19917;-82
2021/01/22 11:39:21;;;;;;;;;;;25.40;92.60;;;;;;4990601;28;19914;-83
2021/01/22 11:41:48;;;;;;;;;;;25.40;92.70;;;;;;4995100;28;20003;-83
2021/01/22 11:44:15;;;;;;;;;;;25.40;92.60;;;;;;4993218;28;19920;-83
2021/01/22 11:46:41;;;;;;;;;;;25.30;92.50;;;;;;4997525;28;19917;-85
2021/01/22 11:49:09;;;;;;;;;;;25.30;92.70;;;;;;4983388;28;19984;-84
2021/01/22 11:51:36;;;;;;;;;;;25.30;92.80;;;;;;4986004;28;20024;-86
2021/01/22 11:54:04;;;;;;;;;;;25.30;92.90;;;;;;4985277;28;20005;-85
2021/01/22 11:56:32;;;;;;;;;;;25.30;93.00;;;;;;4983678;28;19940;-82
2021/01/22 11:58:59;;;;;;;;;;;25.30;93.00;;;;;;4981473;28;19924;-84
2021/01/22 12:01:25;;;;;;;;;;;25.30;93.00;;;;;;4987873;28;20767;-84
2021/01/22 12:03:52;;;;;;;;;;;25.30;93.10;;;;;;4983913;28;19945;-87
2021/01/22 12:06:19;;;;;;;;;;;25.30;93.20;;;;;;4985290;28;20422;-85
2021/01/22 12:08:46;;;;;;;;;;;25.20;93.10;;;;;;4982180;28;19918;-86
2021/01/22 12:11:12;;;;;;;;;;;25.20;93.30;;;;;;4967836;28;19930;-83
2021/01/22 12:13:39;;;;;;;;;;;25.20;93.30;;;;;;4982050;28;21493;-84
2021/01/22 12:16:06;;;;;;;;;;;25.10;93.40;;;;;;4987824;28;19917;-83
2021/01/22 12:18:32;;;;;;;;;;;25.10;93.60;;;;;;4972520;28;19965;-81
2021/01/22 12:20:59;;;;;;;;;;;25.00;93.60;;;;;;4990785;28;19921;-81
2021/01/22 12:23:26;;;;;;;;;;;25.00;93.70;;;;;;4989827;28;19972;-83
2021/01/22 12:25:52;;;;;;;;;;;25.00;93.90;;;;;;4972120;28;19922;-82
2021/01/22 12:28:19;;;;;;;;;;;25.00;93.90;;;;;;4987605;28;19922;-84
2021/01/22 12:30:46;;;;;;;;;;;25.00;93.80;;;;;;4967202;28;19917;-82
2021/01/22 12:33:12;;;;;;;;;;;25.00;93.90;;;;;;4990280;28;19980;-81
2021/01/22 12:35:39;;;;;;;;;;;25.10;93.90;;;;;;4989484;28;19914;-86
2021/01/22 12:38:06;;;;;;;;;;;25.10;93.80;;;;;;4987542;28;20052;-83
2021/01/22 12:40:32;;;;;;;;;;;25.10;93.70;;;;;;4988575;28;19910;-85
2021/01/22 12:42:59;;;;;;;;;;;25.20;93.70;;;;;;4988038;28;19949;-92
2021/01/22 12:45:26;;;;;;;;;;;25.10;93.70;;;;;;4989914;28;19925;-83
2021/01/22 12:47:53;;;;;;;;;;;25.10;93.80;;;;;;4981793;28;20012;-86
2021/01/22 12:50:20;;;;;;;;;;;25.10;93.90;;;;;;4980217;28;20439;-83
2021/01/22 12:52:46;;;;;;;;;;;25.10;94.10;;;;;;4979759;28;19926;-81
2021/01/22 12:55:13;;;;;;;;;;;25.00;94.30;;;;;;4980026;28;20042;-81
2021/01/22 12:57:40;;;;;;;;;;;25.10;94.60;;;;;;4984516;28;19966;-82
2021/01/22 13:00:08;;;;;;;;;;;24.90;94.40;;;;;;4962434;28;20321;-84
2021/01/22 13:02:39;;;;;;;;;;;25.00;94.50;;;;;;4984787;28;19921;-84
2021/01/22 13:05:12;;;;;;;;;;;25.00;94.40;;;;;;4981875;28;20000;-83
2021/01/22 13:07:42;;;;;;;;;;;24.90;94.30;;;;;;4978887;28;19965;-81
2021/01/22 13:10:32;;;;;;;;;;;25.00;94.40;;;;;;4985025;28;19967;-81
2021/01/22 13:12:59;;;;;;;;;;;24.90;94.50;;;;;;4983466;28;19930;-85
2021/01/22 13:15:26;;;;;;;;;;;24.90;94.60;;;;;;4982516;28;19914;-82
2021/01/22 13:17:52;;;;;;;;;;;24.90;94.70;;;;;;4982190;28;19922;-82
2021/01/22 13:20:19;;;;;;;;;;;24.80;94.80;;;;;;4980716;28;19914;-81
2021/01/22 13:22:46;;;;;;;;;;;24.80;94.90;;;;;;4981352;28;19922;-81
2021/01/22 13:25:13;;;;;;;;;;;24.80;95.00;;;;;;4983868;28;20006;-85
2021/01/22 13:27:43;;;;;;;;;;;24.80;94.90;;;;;;4982567;28;19972;-82
2021/01/22 13:30:10;;;;;;;;;;;24.80;94.90;;;;;;4980830;28;19918;-82
2021/01/22 13:32:38;;;;;;;;;;;24.80;94.90;;;;;;4981905;28;19943;-83
2021/01/22 13:35:05;;;;;;;;;;;24.80;95.00;;;;;;4968461;28;20169;-88
2021/01/22 13:37:32;;;;;;;;;;;24.70;95.10;;;;;;4979415;28;19957;-80
2021/01/22 13:40:01;;;;;;;;;;;24.70;95.20;;;;;;4961345;28;19922;-87
2021/01/22 13:42:29;;;;;;;;;;;24.60;95.40;;;;;;4984375;28;20368;-83
2021/01/22 13:44:56;;;;;;;;;;;24.70;95.40;;;;;;4983580;28;20347;-82
2021/01/22 13:47:22;;;;;;;;;;;24.60;95.40;;;;;;4972340;28;20385;-81
2021/01/22 13:49:49;;;;;;;;;;;24.60;95.40;;;;;;4980477;28;20615;-83
2021/01/22 13:52:16;;;;;;;;;;;24.60;95.50;;;;;;4980734;28;20043;-85
2021/01/22 13:54:42;;;;;;;;;;;24.60;95.40;;;;;;4981423;28;19933;-83
2021/01/22 13:57:09;;;;;;;;;;;24.60;95.40;;;;;;4980931;28;19910;-85
2021/01/22 13:59:36;;;;;;;;;;;24.60;95.70;;;;;;4979096;28;19918;-85
2021/01/22 14:02:02;;;;;;;;;;;24.60;95.80;;;;;;4982983;28;20004;-81
2021/01/22 14:04:29;;;;;;;;;;;24.60;95.90;;;;;;4986314;28;19925;-85
2021/01/22 14:06:57;;;;;;;;;;;24.50;95.90;;;;;;4987289;28;19968;-81
2021/01/22 14:09:24;;;;;;;;;;;24.50;95.80;;;;;;4987167;28;19944;-81
2021/01/22 14:11:51;;;;;;;;;;;24.50;95.80;;;;;;4984573;28;20295;-80
2021/01/22 14:14:17;;;;;;;;;;;24.40;95.70;;;;;;4994922;28;19997;-82
2021/01/22 14:16:44;;;;;;;;;;;24.30;95.90;;;;;;4994229;28;20667;-83
2021/01/22 14:19:11;;;;;;;;;;;24.30;96.10;;;;;;4995831;28;19920;-81
2021/01/22 14:21:37;;;;;;;;;;;24.20;96.10;;;;;;5007047;28;19937;-81